createdAt,value
2022-11-24T05:05:06.213Z,51.32
2022-11-24T05:08:09.235Z,50.74
2022-11-24T05:11:11.993Z,50.40
2022-11-24T05:14:14.664Z,50.19
2022-11-24T05:17:17.606Z,50.42
2022-11-24T05:20:21.941Z,50.42
2022-11-24T05:23:25.087Z,50.52
2022-11-24T05:26:28.159Z,50.38
2022-11-24T05:29:30.947Z,50.71
2022-11-24T05:32:33.872Z,50.46
2022-11-24T05:35:36.905Z,50.68
2022-11-24T05:38:39.672Z,50.46
2022-11-24T05:41:42.739Z,50.59
2022-11-24T05:44:45.415Z,50.76
2022-11-24T05:47:49.518Z,50.81
2022-11-24T05:50:56.742Z,50.76
2022-11-24T05:53:59.518Z,50.96
2022-11-24T05:57:02.644Z,51.20
2022-11-24T06:00:07.346Z,51.04
2022-11-24T06:03:15.207Z,51.12
2022-11-24T06:06:17.962Z,50.66
2022-11-24T06:09:21.201Z,50.60
2022-11-24T06:12:23.957Z,50.10
2022-11-24T06:15:26.751Z,50.01
2022-11-24T06:18:29.503Z,49.58
2022-11-24T06:21:32.594Z,49.57
2022-11-24T06:24:35.615Z,49.28
2022-11-24T06:27:38.579Z,49.15
2022-11-24T06:30:41.280Z,49.26
2022-11-24T06:33:44.512Z,49.05
2022-11-24T06:36:47.362Z,50.18
2022-11-24T06:39:50.222Z,50.20
2022-11-24T06:42:53.292Z,50.88
2022-11-24T06:45:56.981Z,51.52
2022-11-24T06:49:00.852Z,51.02
2022-11-24T06:52:03.715Z,50.50
2022-11-24T06:55:16.124Z,50.91
2022-11-24T06:58:27.317Z,51.45
2022-11-24T07:01:30.500Z,51.33
2022-11-24T07:04:34.136Z,50.98
2022-11-24T07:07:37.180Z,51.73
2022-11-24T07:10:39.995Z,52.54
2022-11-24T07:13:43.925Z,51.88
2022-11-24T07:16:46.736Z,51.64
2022-11-24T07:19:49.605Z,52.12
2022-11-24T07:22:57.074Z,52.51
2022-11-24T07:26:05.218Z,52.62
2022-11-24T07:29:09.855Z,43.06
2022-11-24T07:32:12.685Z,46.81
2022-11-24T07:35:15.467Z,46.74
2022-11-24T07:38:18.208Z,47.35
2022-11-24T07:41:21.054Z,47.77
2022-11-24T07:44:26.919Z,48.19
2022-11-24T07:47:29.688Z,47.63
2022-11-24T07:50:32.648Z,47.45
2022-11-24T07:53:36.060Z,46.86
2022-11-24T07:56:38.817Z,47.33
2022-11-24T07:59:41.645Z,48.08
2022-11-24T08:02:44.776Z,48.09
2022-11-24T08:09:23.296Z,48.18
2022-11-24T08:12:26.027Z,48.60
2022-11-24T08:15:29.586Z,47.96
2022-11-24T08:18:32.982Z,49.22
2022-11-24T08:21:35.898Z,49.28
2022-11-24T08:24:46.435Z,49.53
2022-11-24T08:27:49.234Z,49.34
2022-11-24T08:30:52.279Z,49.43
2022-11-24T08:33:56.109Z,49.50
2022-11-24T08:36:58.848Z,49.90
2022-11-24T08:40:01.593Z,49.68
2022-11-24T08:43:04.481Z,49.21
2022-11-24T08:46:10.791Z,49.21
2022-11-24T08:49:16.566Z,49.24
2022-11-24T08:52:39.899Z,49.52
2022-11-24T08:55:42.807Z,49.62
2022-11-24T08:58:45.596Z,49.30
2022-11-24T09:01:49.795Z,49.06
2022-11-24T09:04:53.785Z,49.20
2022-11-24T09:07:58.443Z,48.82
2022-11-24T09:11:02.587Z,49.09
2022-11-24T09:14:05.667Z,48.95
2022-11-24T09:17:08.552Z,49.06
2022-11-24T09:20:11.399Z,48.83
2022-11-24T09:23:14.845Z,48.54
2022-11-24T09:26:28.283Z,48.81
2022-11-24T09:29:31.252Z,48.63
2022-11-24T09:32:34.050Z,48.82
2022-11-24T09:36:08.628Z,48.56
2022-11-24T09:39:12.567Z,48.90
2022-11-24T09:42:53.379Z,49.14
2022-11-24T09:46:06.890Z,49.28
2022-11-24T09:49:35.124Z,49.84
2022-11-24T09:52:38.183Z,49.39
2022-11-24T09:55:50.364Z,49.75
2022-11-24T09:59:15.806Z,49.20
2022-11-24T10:02:50.893Z,49.34
2022-11-24T10:05:53.799Z,49.23
2022-11-24T10:09:21.106Z,49.03
2022-11-24T10:12:28.192Z,49.32
2022-11-24T10:15:55.488Z,49.44
2022-11-24T10:19:33.902Z,49.17
2022-11-24T10:22:44.889Z,48.33
